createdAt,value
2017-08-14T00:00:11.611Z,13.10
2017-08-14T00:01:06.042Z,13.16
2017-08-14T00:02:00.242Z,13.21
2017-08-14T00:03:00.109Z,13.28
2017-08-14T00:03:55.443Z,13.32
2017-08-14T00:05:01.316Z,13.33
2017-08-14T00:05:56.208Z,13.38
2017-08-14T00:06:50.318Z,13.42
2017-08-14T00:07:50.368Z,13.43
2017-08-14T00:08:56.387Z,13.46
2017-08-14T00:09:51.576Z,13.51
2017-08-14T00:10:46.443Z,13.49
2017-08-14T00:11:46.443Z,13.48
2017-08-14T00:12:41.586Z,13.48
2017-08-14T00:13:36.502Z,13.42
2017-08-14T00:14:36.840Z,13.35
2017-08-14T00:15:31.512Z,13.31
2017-08-14T00:16:26.618Z,13.26
2017-08-14T00:17:27.605Z,13.19
2017-08-14T00:18:27.600Z,13.16
2017-08-14T00:19:27.709Z,13.14
2017-08-14T00:20:27.864Z,13.14
2017-08-14T00:21:28.780Z,13.10
2017-08-14T00:22:29.857Z,13.11
2017-08-14T00:23:23.980Z,13.12
2017-08-14T00:24:23.817Z,13.07
2017-08-14T00:25:18.892Z,13.07
2017-08-14T00:26:13.973Z,13.11
2017-08-14T00:27:13.950Z,13.10
2017-08-14T00:28:09.073Z,13.16
2017-08-14T00:29:03.975Z,13.19
2017-08-14T00:30:04.290Z,13.14
2017-08-14T00:30:59.139Z,13.12
2017-08-14T00:31:54.243Z,13.06
2017-08-14T00:32:55.189Z,13.07
2017-08-14T00:33:55.257Z,13.01
2017-08-14T00:34:55.521Z,13.06
2017-08-14T00:35:50.284Z,13.07
2017-08-14T00:36:50.252Z,13.03
2017-08-14T00:37:56.488Z,13.00
2017-08-14T00:38:51.362Z,13.03
2017-08-14T00:39:51.622Z,13.06
2017-08-14T00:40:46.604Z,13.07
2017-08-14T00:41:41.623Z,13.03
2017-08-14T00:42:41.700Z,13.03
2017-08-14T00:43:36.726Z,13.06
2017-08-14T00:44:31.717Z,13.07
2017-08-14T00:45:31.677Z,13.08
2017-08-14T00:46:26.880Z,13.08
2017-08-14T00:47:21.637Z,13.08
2017-08-14T00:48:22.705Z,13.00
2017-08-14T00:49:22.937Z,12.97
2017-08-14T00:50:22.904Z,12.94
2017-08-14T00:51:22.842Z,12.94
2017-08-14T00:52:23.061Z,12.94
2017-08-14T00:53:16.831Z,12.95
2017-08-14T00:54:11.846Z,12.94
2017-08-14T00:55:12.090Z,12.93
2017-08-14T00:56:12.065Z,12.94
2017-08-14T00:57:07.285Z,12.98
2017-08-14T00:58:07.201Z,12.98
2017-08-14T00:59:07.227Z,12.92
2017-08-14T01:00:01.264Z,12.92
2017-08-14T01:01:01.329Z,12.90
2017-08-14T01:01:56.330Z,12.90
2017-08-14T01:02:56.413Z,12.93
2017-08-14T01:03:56.408Z,12.88
2017-08-14T01:04:56.505Z,12.88
2017-08-14T01:05:56.533Z,12.86
2017-08-14T01:06:56.569Z,12.86
2017-08-14T01:07:44.543Z,12.83
2017-08-14T01:08:33.562Z,12.82
2017-08-14T01:09:27.598Z,12.81
2017-08-14T01:10:27.696Z,12.80
2017-08-14T01:11:27.661Z,12.83
2017-08-14T01:12:16.803Z,12.86
2017-08-14T01:13:11.797Z,12.88
2017-08-14T01:14:05.775Z,12.88
2017-08-14T01:15:05.897Z,12.84
2017-08-14T01:16:05.855Z,12.82
2017-08-14T01:17:11.892Z,12.76
2017-08-14T01:18:06.977Z,12.74
2017-08-14T01:19:07.170Z,12.77
2017-08-14T01:20:01.038Z,12.75
2017-08-14T01:21:01.188Z,12.70
2017-08-14T01:22:01.082Z,12.80
2017-08-14T01:22:56.080Z,12.76
2017-08-14T01:23:55.909Z,12.75
2017-08-14T01:24:49.998Z,12.72
2017-08-14T01:25:45.298Z,12.71
2017-08-14T01:26:38.975Z,12.76
2017-08-14T01:27:39.032Z,12.76
2017-08-14T01:28:40.197Z,12.80
2017-08-14T01:29:40.431Z,12.74
2017-08-14T01:30:34.194Z,12.75
2017-08-14T01:31:23.275Z,12.76
2017-08-14T01:32:17.216Z,12.73
2017-08-14T01:33:06.283Z,12.72
2017-08-14T01:34:01.413Z,12.71
2017-08-14T01:34:56.653Z,12.70
2017-08-14T01:35:44.836Z,12.72
2017-08-14T01:36:38.413Z,12.72
2017-08-14T01:37:33.522Z,12.71
2017-08-14T01:38:27.484Z,12.74
2017-08-14T01:39:22.477Z,12.80
2017-08-14T01:40:22.541Z,12.83
2017-08-14T01:41:17.593Z,12.80
2017-08-14T01:42:17.670Z,12.78
2017-08-14T01:43:12.725Z,12.77
2017-08-14T01:44:06.869Z,12.84
2017-08-14T01:44:56.063Z,12.83
2017-08-14T01:45:45.097Z,12.85
2017-08-14T01:46:33.848Z,12.87
2017-08-14T01:47:22.911Z,12.84
2017-08-14T01:48:16.888Z,12.82
2017-08-14T01:49:10.930Z,12.82
2017-08-14T01:50:17.164Z,12.86
2017-08-14T01:51:05.023Z,12.87
2017-08-14T01:51:59.147Z,12.88
2017-08-14T01:52:48.052Z,12.84
2017-08-14T01:53:48.116Z,12.84
2017-08-14T01:54:43.093Z,12.85
2017-08-14T01:55:32.229Z,12.90
2017-08-14T01:56:26.248Z,12.89
2017-08-14T01:57:20.332Z,12.90
2017-08-14T01:58:21.320Z,12.90
2017-08-14T01:59:15.347Z,12.95
2017-08-14T02:00:09.657Z,12.92
2017-08-14T02:01:03.515Z,12.90
2017-08-14T02:01:58.548Z,12.87
2017-08-14T02:02:58.653Z,12.82
2017-08-14T02:03:53.530Z,12.78
2017-08-14T02:04:53.528Z,12.85
2017-08-14T02:05:47.719Z,12.90
2017-08-14T02:06:47.658Z,12.91
2017-08-14T02:07:42.655Z,12.86
2017-08-14T02:08:37.894Z,12.86
2017-08-14T02:09:25.729Z,12.84
2017-08-14T02:10:20.001Z,12.86
2017-08-14T02:11:08.816Z,12.86
2017-08-14T02:11:56.847Z,12.86
2017-08-14T02:12:45.953Z,12.82
2017-08-14T02:13:40.073Z,12.84
2017-08-14T02:14:34.027Z,12.81
2017-08-14T02:15:28.103Z,12.82
2017-08-14T02:16:22.004Z,12.84
2017-08-14T02:17:22.064Z,12.82
2017-08-14T02:18:11.091Z,12.84
2017-08-14T02:18:59.347Z,12.81
2017-08-14T02:19:47.206Z,12.77
2017-08-14T02:20:36.244Z,12.75
2017-08-14T02:21:30.276Z,12.76
2017-08-14T02:22:36.446Z,12.72
2017-08-14T02:23:36.309Z,12.76
2017-08-14T02:24:30.522Z,12.83
2017-08-14T02:25:24.509Z,12.82
2017-08-14T02:26:19.506Z,12.84
2017-08-14T02:27:13.516Z,12.86
2017-08-14T02:28:07.636Z,12.82
2017-08-14T02:29:02.677Z,12.79
2017-08-14T02:29:56.920Z,12.75
2017-08-14T02:30:51.674Z,12.80
2017-08-14T02:31:46.751Z,12.76
2017-08-14T02:32:35.634Z,12.74
2017-08-14T02:33:23.700Z,12.68
2017-08-14T02:34:13.059Z,12.65
2017-08-14T02:35:00.857Z,12.62
2017-08-14T02:35:49.846Z,12.70
2017-08-14T02:36:49.909Z,12.78
2017-08-14T02:37:44.252Z,12.81
2017-08-14T02:38:43.985Z,12.86
2017-08-14T02:39:39.184Z,12.86
2017-08-14T02:40:39.010Z,12.82
2017-08-14T02:41:27.081Z,12.76
2017-08-14T02:42:21.265Z,12.73
2017-08-14T02:43:21.154Z,12.74
2017-08-14T02:44:16.147Z,12.71
2017-08-14T02:45:11.438Z,12.67
2017-08-14T02:46:05.520Z,12.68
2017-08-14T02:46:54.302Z,12.64
2017-08-14T02:47:42.288Z,12.60
2017-08-14T02:48:36.401Z,12.56
2017-08-14T02:49:31.553Z,12.52
2017-08-14T02:50:25.492Z,12.56
2017-08-14T02:51:20.619Z,12.56
2017-08-14T02:52:08.576Z,12.50
2017-08-14T02:53:02.671Z,12.45
2017-08-14T02:53:56.692Z,12.42
2017-08-14T02:54:56.941Z,12.38
2017-08-14T02:55:56.673Z,12.39
2017-08-14T02:56:51.822Z,12.38
2017-08-14T02:57:45.872Z,12.36
2017-08-14T02:58:45.960Z,12.33
2017-08-14T02:59:41.045Z,12.27
2017-08-14T03:00:40.906Z,12.25
2017-08-14T03:01:34.798Z,12.22
2017-08-14T03:02:36.081Z,12.27
2017-08-14T03:03:30.929Z,12.34
2017-08-14T03:04:31.174Z,12.32
2017-08-14T03:05:31.123Z,12.31
2017-08-14T03:06:25.011Z,12.30
2017-08-14T03:07:19.097Z,12.26
2017-08-14T03:08:13.125Z,12.22
2017-08-14T03:09:07.131Z,12.19
2017-08-14T03:09:56.428Z,12.16
2017-08-14T03:10:50.357Z,12.19
2017-08-14T03:11:44.450Z,12.20
2017-08-14T03:12:32.527Z,12.16
2017-08-14T03:13:20.563Z,12.17
2017-08-14T03:14:14.542Z,12.20
2017-08-14T03:15:09.639Z,12.21
2017-08-14T03:16:10.606Z,12.18
2017-08-14T03:17:04.672Z,12.18
2017-08-14T03:17:53.713Z,12.16
2017-08-14T03:18:47.792Z,12.19
2017-08-14T03:19:42.863Z,12.21
2017-08-14T03:20:42.835Z,12.26
2017-08-14T03:21:36.780Z,12.28
2017-08-14T03:22:36.887Z,12.27
2017-08-14T03:23:31.880Z,12.24
2017-08-14T03:24:26.888Z,12.24
2017-08-14T03:25:27.006Z,12.21
2017-08-14T03:26:22.085Z,12.22
2017-08-14T03:27:16.842Z,12.23
2017-08-14T03:28:23.062Z,12.15
2017-08-14T03:29:16.873Z,12.23
2017-08-14T03:30:17.315Z,12.28
2017-08-14T03:31:12.009Z,12.28
2017-08-14T03:32:00.086Z,12.26
2017-08-14T03:32:48.078Z,12.26
2017-08-14T03:33:42.379Z,12.26
2017-08-14T03:34:31.429Z,12.20
2017-08-14T03:35:25.192Z,12.21
2017-08-14T03:36:19.497Z,12.24
2017-08-14T03:37:07.304Z,12.22
2017-08-14T03:37:56.306Z,12.18
2017-08-14T03:38:57.326Z,12.18
2017-08-14T03:39:57.606Z,12.17
2017-08-14T03:40:52.682Z,12.18
2017-08-14T03:41:53.607Z,12.18
2017-08-14T03:42:48.692Z,12.22
2017-08-14T03:43:43.749Z,12.22
2017-08-14T03:44:43.724Z,12.20
2017-08-14T03:45:38.719Z,12.14
2017-08-14T03:46:33.849Z,12.16
2017-08-14T03:47:34.811Z,12.17
2017-08-14T03:48:23.910Z,12.21
2017-08-14T03:49:18.963Z,12.22
2017-08-14T03:50:18.919Z,12.16
2017-08-14T03:51:13.035Z,12.15
2017-08-14T03:52:07.067Z,12.12
2017-08-14T03:52:56.058Z,12.12
2017-08-14T03:53:51.136Z,12.09
2017-08-14T03:54:45.128Z,12.02
2017-08-14T03:55:33.230Z,12.01
2017-08-14T03:56:21.239Z,12.01
2017-08-14T03:57:09.385Z,12.02
2017-08-14T03:57:58.399Z,12.01
2017-08-14T03:58:46.391Z,11.98
2017-08-14T03:59:34.477Z,11.92
2017-08-14T04:00:22.473Z,11.92
2017-08-14T04:01:17.440Z,11.93
2017-08-14T04:02:11.603Z,11.94
2017-08-14T04:02:59.569Z,11.98
2017-08-14T04:03:47.632Z,11.96
2017-08-14T04:04:35.680Z,11.96
2017-08-14T04:05:24.726Z,11.96
2017-08-14T04:06:18.809Z,11.98
2017-08-14T04:07:12.801Z,12.04
2017-08-14T04:08:12.833Z,12.06
2017-08-14T04:09:06.808Z,12.00
2017-08-14T04:10:06.873Z,11.98
2017-08-14T04:11:01.880Z,11.96
2017-08-14T04:11:56.008Z,12.02
2017-08-14T04:12:56.013Z,12.05
2017-08-14T04:13:49.972Z,12.06
2017-08-14T04:14:51.125Z,12.12
2017-08-14T04:15:46.118Z,12.12
2017-08-14T04:16:47.193Z,12.14
2017-08-14T04:17:35.141Z,12.13
2017-08-14T04:18:24.336Z,12.16
2017-08-14T04:19:24.207Z,12.14
2017-08-14T04:20:19.241Z,12.13
2017-08-14T04:21:13.310Z,12.15
2017-08-14T04:22:08.277Z,12.20
2017-08-14T04:23:08.366Z,12.22
2017-08-14T04:24:03.399Z,12.27
2017-08-14T04:25:03.465Z,12.24
2017-08-14T04:26:03.469Z,12.21
2017-08-14T04:27:03.556Z,12.22
2017-08-14T04:27:57.540Z,12.29
2017-08-14T04:28:51.542Z,12.22
2017-08-14T04:29:45.690Z,12.24
2017-08-14T04:30:40.691Z,12.23
2017-08-14T04:31:28.693Z,12.28
2017-08-14T04:32:29.799Z,12.20
2017-08-14T04:33:23.826Z,12.24
2017-08-14T04:34:11.843Z,12.17
2017-08-14T04:35:05.880Z,12.16
2017-08-14T04:35:59.875Z,12.16
2017-08-14T04:37:00.860Z,12.18
2017-08-14T04:37:48.947Z,12.18
2017-08-14T04:38:37.993Z,12.19
2017-08-14T04:39:33.072Z,12.27
2017-08-14T04:40:27.080Z,12.32
2017-08-14T04:41:27.029Z,12.33
2017-08-14T04:42:27.095Z,12.28
2017-08-14T04:43:28.123Z,12.26
2017-08-14T04:44:23.206Z,12.24
2017-08-14T04:45:17.251Z,12.22
2017-08-14T04:46:18.228Z,12.20
2017-08-14T04:47:13.340Z,12.18
2017-08-14T04:48:13.333Z,12.17
2017-08-14T04:49:13.288Z,12.21
2017-08-14T04:50:13.424Z,12.20
2017-08-14T04:51:13.439Z,12.27
2017-08-14T04:52:13.448Z,12.26
2017-08-14T04:53:13.456Z,12.23
2017-08-14T04:54:13.510Z,12.30
2017-08-14T04:55:13.545Z,12.26
2017-08-14T04:56:13.567Z,12.30
2017-08-14T04:57:13.742Z,12.31
2017-08-14T04:58:07.627Z,12.40
2017-08-14T04:59:07.704Z,12.46
2017-08-14T04:59:56.805Z,12.45
2017-08-14T05:00:50.775Z,12.46
2017-08-14T05:01:45.827Z,12.47
2017-08-14T05:02:46.956Z,12.49
2017-08-14T05:03:47.910Z,12.53
2017-08-14T05:04:47.930Z,12.49
2017-08-14T05:05:47.972Z,12.54
2017-08-14T05:06:42.054Z,12.62
2017-08-14T05:07:42.080Z,12.62
2017-08-14T05:08:37.138Z,12.68
2017-08-14T05:09:26.123Z,12.74
2017-08-14T05:10:21.172Z,12.74
2017-08-14T05:11:16.189Z,12.76
2017-08-14T05:12:10.276Z,12.79
2017-08-14T05:13:10.284Z,12.86
2017-08-14T05:14:04.342Z,12.94
2017-08-14T05:15:05.377Z,12.92
2017-08-14T05:15:53.345Z,13.04
2017-08-14T05:16:42.381Z,13.10
2017-08-14T05:17:42.403Z,13.20
2017-08-14T05:18:37.483Z,13.37
2017-08-14T05:19:31.521Z,13.43
2017-08-14T05:20:31.568Z,13.47
2017-08-14T05:21:31.611Z,13.56
2017-08-14T05:22:31.572Z,13.68
2017-08-14T05:23:31.681Z,13.76
2017-08-14T05:24:31.657Z,13.86
2017-08-14T05:25:25.723Z,13.96
2017-08-14T05:26:13.758Z,14.18
2017-08-14T05:27:02.824Z,14.38
2017-08-14T05:27:57.962Z,14.10
2017-08-14T05:28:57.961Z,14.22
2017-08-14T05:29:57.697Z,14.16
2017-08-14T05:30:51.938Z,14.35
2017-08-14T05:31:51.898Z,14.66
2017-08-14T05:32:46.017Z,14.69
2017-08-14T05:33:46.056Z,14.95
2017-08-14T05:34:46.033Z,15.02
2017-08-14T05:35:46.126Z,14.92
2017-08-14T05:36:41.059Z,15.00
2017-08-14T05:37:34.998Z,15.25
2017-08-14T05:38:29.054Z,15.36
2017-08-14T05:39:29.026Z,15.53
2017-08-14T05:40:29.222Z,15.60
2017-08-14T05:41:24.141Z,15.50
2017-08-14T05:42:18.520Z,15.60
2017-08-14T05:43:07.311Z,15.65
2017-08-14T05:44:02.312Z,15.87
2017-08-14T05:45:02.370Z,16.03
2017-08-14T05:45:57.413Z,16.23
2017-08-14T05:46:51.528Z,16.18
2017-08-14T05:47:51.408Z,16.19
2017-08-14T05:48:40.604Z,16.16
2017-08-14T05:49:35.834Z,16.34
2017-08-14T05:50:35.565Z,16.41
2017-08-14T05:51:29.741Z,16.46
2017-08-14T05:52:30.764Z,16.32
2017-08-14T05:53:30.985Z,16.32
2017-08-14T05:54:26.016Z,16.28
2017-08-14T05:55:14.972Z,16.25
2017-08-14T05:56:10.037Z,16.39
2017-08-14T05:57:05.000Z,16.32
2017-08-14T05:58:06.201Z,16.45
2017-08-14T05:59:06.123Z,16.63
2017-08-14T06:00:01.062Z,16.76
2017-08-14T06:01:01.282Z,16.05
2017-08-14T06:01:55.320Z,15.67
2017-08-14T06:02:49.319Z,15.80
2017-08-14T06:03:44.515Z,15.58
2017-08-14T06:04:43.456Z,15.78
2017-08-14T06:05:37.538Z,15.72
2017-08-14T06:06:37.467Z,15.76
2017-08-14T06:07:37.531Z,15.94
2017-08-14T06:08:37.643Z,15.52
2017-08-14T06:09:37.751Z,15.83
2017-08-14T06:10:26.624Z,15.90
2017-08-14T06:11:14.822Z,15.73
2017-08-14T06:12:14.737Z,15.67
2017-08-14T06:13:08.652Z,15.13
2017-08-14T06:14:02.820Z,14.62
2017-08-14T06:15:02.987Z,14.79
2017-08-14T06:16:02.739Z,14.81
2017-08-14T06:17:02.952Z,14.78
2017-08-14T06:18:03.063Z,15.28
2017-08-14T06:18:57.098Z,15.20
2017-08-14T06:19:52.169Z,15.18
2017-08-14T06:20:52.192Z,15.42
2017-08-14T06:21:52.167Z,16.06
2017-08-14T06:22:47.286Z,15.08
2017-08-14T06:23:41.395Z,14.70
2017-08-14T06:24:41.367Z,14.35
2017-08-14T06:25:29.439Z,14.30
2017-08-14T06:26:24.581Z,14.74
2017-08-14T06:27:18.536Z,15.56
2017-08-14T06:28:12.632Z,15.25
2017-08-14T06:29:06.573Z,15.29
2017-08-14T06:29:54.588Z,15.72
2017-08-14T06:30:55.593Z,15.34
2017-08-14T06:31:55.902Z,14.98
2017-08-14T06:32:49.853Z,15.01
2017-08-14T06:33:49.848Z,14.87
2017-08-14T06:34:38.991Z,14.65
2017-08-14T06:35:27.900Z,14.36
2017-08-14T06:36:28.035Z,14.46
2017-08-14T06:37:17.094Z,14.75
2017-08-14T06:38:06.099Z,15.02
2017-08-14T06:39:00.191Z,15.24
2017-08-14T06:40:00.193Z,15.62
2017-08-14T06:40:55.201Z,16.06
2017-08-14T06:41:50.263Z,16.28
2017-08-14T06:42:50.384Z,16.52
2017-08-14T06:43:44.403Z,16.61
2017-08-14T06:44:38.468Z,16.86
2017-08-14T06:45:32.464Z,17.20
2017-08-14T06:46:20.518Z,16.81
2017-08-14T06:47:08.618Z,16.92
2017-08-14T06:48:03.619Z,16.37
2017-08-14T06:48:51.640Z,16.63
2017-08-14T06:49:51.700Z,16.40
2017-08-14T06:50:45.849Z,16.16
2017-08-14T06:51:45.823Z,16.39
2017-08-14T06:52:40.858Z,17.42
2017-08-14T06:53:30.009Z,17.56
2017-08-14T06:54:23.985Z,17.19
2017-08-14T06:55:19.062Z,17.97
2017-08-14T06:56:13.109Z,18.00
2017-08-14T06:57:07.180Z,18.33
2017-08-14T06:57:56.213Z,18.77
2017-08-14T06:58:44.205Z,18.52
2017-08-14T06:59:32.317Z,18.63
2017-08-14T07:00:32.293Z,19.01
2017-08-14T07:01:21.430Z,19.98
2017-08-14T07:02:15.570Z,19.65
2017-08-14T07:03:09.461Z,19.23
2017-08-14T07:04:09.575Z,18.98
2017-08-14T07:05:09.588Z,19.01
2017-08-14T07:06:04.661Z,19.66
2017-08-14T07:06:59.660Z,19.86
2017-08-14T07:07:54.751Z,20.16
2017-08-14T07:08:43.821Z,20.10
2017-08-14T07:09:38.923Z,20.52
2017-08-14T07:10:27.937Z,20.10
2017-08-14T07:11:22.997Z,20.25
2017-08-14T07:12:23.096Z,20.63
2017-08-14T07:13:17.154Z,21.06
2017-08-14T07:14:12.115Z,21.55
2017-08-14T07:15:06.199Z,21.86
2017-08-14T07:16:06.275Z,22.06
2017-08-14T07:17:00.310Z,22.39
2017-08-14T07:17:54.399Z,22.53
2017-08-14T07:18:42.392Z,22.36
2017-08-14T07:19:31.482Z,21.75
2017-08-14T07:20:25.678Z,21.05
2017-08-14T07:21:25.587Z,20.40
2017-08-14T07:22:19.666Z,20.51
2017-08-14T07:23:08.671Z,19.66
2017-08-14T07:24:08.670Z,18.77
2017-08-14T07:24:57.815Z,18.06
2017-08-14T07:25:51.782Z,18.40
2017-08-14T07:26:51.899Z,19.14
2017-08-14T07:27:39.990Z,18.98
2017-08-14T07:28:29.053Z,18.77
2017-08-14T07:29:23.089Z,19.68
2017-08-14T07:30:17.136Z,19.74
2017-08-14T07:31:11.293Z,20.28
2017-08-14T07:32:00.252Z,20.89
2017-08-14T07:33:00.271Z,21.35
2017-08-14T07:33:55.335Z,21.87
2017-08-14T07:34:49.428Z,22.42
2017-08-14T07:35:43.614Z,22.74
2017-08-14T07:36:37.474Z,22.93
2017-08-14T07:37:38.574Z,22.96
2017-08-14T07:38:32.658Z,22.65
2017-08-14T07:39:20.692Z,22.19
2017-08-14T07:40:20.789Z,21.69
2017-08-14T07:41:09.869Z,22.00
2017-08-14T07:41:58.817Z,21.62
2017-08-14T07:42:59.941Z,21.52
2017-08-14T07:43:54.989Z,21.78
2017-08-14T07:44:50.122Z,21.69
2017-08-14T07:45:38.068Z,22.02
2017-08-14T07:46:33.096Z,22.71
2017-08-14T07:47:22.249Z,22.70
2017-08-14T07:48:16.284Z,22.54
2017-08-14T07:49:10.301Z,22.48
2017-08-14T07:50:04.355Z,22.74
2017-08-14T07:50:52.439Z,22.91
2017-08-14T07:51:46.568Z,22.84
2017-08-14T07:52:46.494Z,23.22
2017-08-14T07:53:41.578Z,23.07
2017-08-14T07:54:35.655Z,22.89
2017-08-14T07:55:29.736Z,22.56
2017-08-14T07:56:17.831Z,21.56
2017-08-14T07:57:05.852Z,20.90
2017-08-14T07:57:59.869Z,20.96
2017-08-14T07:58:47.956Z,21.54
2017-08-14T07:59:48.090Z,21.54
2017-08-14T08:00:43.022Z,22.29
2017-08-14T08:01:43.094Z,22.40
2017-08-14T08:02:37.184Z,22.30
2017-08-14T08:03:37.212Z,22.80
2017-08-14T08:04:26.332Z,22.51
2017-08-14T08:05:20.338Z,22.31
2017-08-14T08:06:21.403Z,22.24
2017-08-14T08:07:21.444Z,22.20
2017-08-14T08:08:09.519Z,22.14
2017-08-14T08:09:09.625Z,22.54
2017-08-14T08:09:58.685Z,23.08
2017-08-14T08:10:52.717Z,23.38
2017-08-14T08:11:47.821Z,23.50
2017-08-14T08:12:36.862Z,24.00
2017-08-14T08:13:31.839Z,23.99
2017-08-14T08:14:25.901Z,23.96
2017-08-14T08:15:14.990Z,23.05
2017-08-14T08:16:10.075Z,22.43
2017-08-14T08:17:04.069Z,22.17
2017-08-14T08:17:58.208Z,21.99
2017-08-14T08:18:58.263Z,22.32
2017-08-14T08:19:58.267Z,22.93
2017-08-14T08:20:52.355Z,23.42
2017-08-14T08:21:41.355Z,23.70
2017-08-14T08:22:35.474Z,24.14
2017-08-14T08:23:24.457Z,24.24
2017-08-14T08:24:24.516Z,23.60
2017-08-14T08:25:18.639Z,23.10
2017-08-14T08:26:12.728Z,22.44
2017-08-14T08:27:00.742Z,22.66
2017-08-14T08:27:54.825Z,23.07
2017-08-14T08:28:48.888Z,23.58
2017-08-14T08:29:44.013Z,24.06
2017-08-14T08:30:31.999Z,24.41
2017-08-14T08:31:26.002Z,24.47
2017-08-14T08:32:14.062Z,24.70
2017-08-14T08:33:15.158Z,24.93
2017-08-14T08:34:04.146Z,24.76
2017-08-14T08:34:58.296Z,24.22
2017-08-14T08:35:53.354Z,24.05
2017-08-14T08:36:42.389Z,24.32
2017-08-14T08:37:42.417Z,24.76
2017-08-14T08:38:36.553Z,24.46
2017-08-14T08:39:30.700Z,23.49
2017-08-14T08:40:25.720Z,23.44
2017-08-14T08:41:14.823Z,23.68
2017-08-14T08:42:08.819Z,24.11
2017-08-14T08:43:03.809Z,24.36
2017-08-14T08:44:03.937Z,24.62
2017-08-14T08:44:53.011Z,23.62
2017-08-14T08:45:40.957Z,22.93
2017-08-14T08:46:41.074Z,22.95
2017-08-14T08:47:30.093Z,23.36
2017-08-14T08:48:24.190Z,23.90
2017-08-14T08:49:30.296Z,24.43
2017-08-14T08:50:24.307Z,25.30
2017-08-14T08:51:13.370Z,25.86
2017-08-14T08:52:01.482Z,26.14
2017-08-14T08:53:01.457Z,26.34
2017-08-14T08:53:56.501Z,26.62
2017-08-14T08:54:56.599Z,26.42
2017-08-14T08:55:50.674Z,26.52
2017-08-14T08:56:50.673Z,25.78
2017-08-14T08:57:38.763Z,25.53
2017-08-14T08:58:32.836Z,25.37
2017-08-14T08:59:26.880Z,25.60
2017-08-14T09:00:14.920Z,25.74
2017-08-14T09:01:15.043Z,25.83
2017-08-14T09:02:09.066Z,26.25
2017-08-14T09:02:58.168Z,26.79
2017-08-14T09:03:46.188Z,27.03
2017-08-14T09:04:35.235Z,27.15
2017-08-14T09:05:24.352Z,26.95
2017-08-14T09:06:24.443Z,26.69
2017-08-14T09:07:19.511Z,25.82
2017-08-14T09:08:13.611Z,25.76
2017-08-14T09:09:13.634Z,25.80
2017-08-14T09:10:07.627Z,25.79
2017-08-14T09:10:56.728Z,26.10
2017-08-14T09:11:44.816Z,26.22
2017-08-14T09:12:44.863Z,25.39
2017-08-14T09:13:33.949Z,24.90
2017-08-14T09:14:23.000Z,24.94
2017-08-14T09:15:17.074Z,24.32
2017-08-14T09:16:11.069Z,22.92
2017-08-14T09:17:00.204Z,22.85
2017-08-14T09:18:06.362Z,23.32
2017-08-14T09:19:01.240Z,23.88
2017-08-14T09:19:55.308Z,24.20
2017-08-14T09:20:49.385Z,24.52
2017-08-14T09:21:43.420Z,24.77
2017-08-14T09:22:44.535Z,25.08
2017-08-14T09:23:33.585Z,25.42
2017-08-14T09:24:28.593Z,25.51
2017-08-14T09:25:22.747Z,25.65
2017-08-14T09:26:22.730Z,26.01
2017-08-14T09:27:16.838Z,25.91
2017-08-14T09:28:05.830Z,25.34
2017-08-14T09:28:54.975Z,25.35
2017-08-14T09:29:49.055Z,25.30
2017-08-14T09:30:43.098Z,24.81
2017-08-14T09:31:37.134Z,24.47
2017-08-14T09:32:26.250Z,24.45
2017-08-14T09:33:20.288Z,24.73
2017-08-14T09:34:14.337Z,24.82
2017-08-14T09:35:03.397Z,25.32
2017-08-14T09:35:57.386Z,25.62
2017-08-14T09:36:46.519Z,25.65
2017-08-14T09:37:40.557Z,25.38
2017-08-14T09:38:35.646Z,25.45
2017-08-14T09:39:29.692Z,25.91
2017-08-14T09:40:29.728Z,25.88
2017-08-14T09:41:18.784Z,25.62
2017-08-14T09:42:12.889Z,25.14
2017-08-14T09:43:12.984Z,24.90
2017-08-14T09:44:06.988Z,24.94
2017-08-14T09:45:07.057Z,24.98
2017-08-14T09:46:01.133Z,25.05
2017-08-14T09:46:55.152Z,25.14
2017-08-14T09:47:44.251Z,25.14
2017-08-14T09:48:39.299Z,24.99
2017-08-14T09:49:33.383Z,24.97
2017-08-14T09:50:33.409Z,24.97
2017-08-14T09:51:27.495Z,24.82
2017-08-14T09:52:27.487Z,24.94
2017-08-14T09:53:21.561Z,25.04
2017-08-14T09:54:16.641Z,24.80
2017-08-14T09:55:04.799Z,24.70
2017-08-14T09:55:52.849Z,24.69
2017-08-14T09:56:41.884Z,24.68
2017-08-14T09:57:41.914Z,24.98
2017-08-14T09:58:30.997Z,25.18
2017-08-14T09:59:25.068Z,25.18
2017-08-14T10:00:20.187Z,25.47
2017-08-14T10:01:14.212Z,25.76
2017-08-14T10:02:08.305Z,25.99
2017-08-14T10:03:02.260Z,26.08
2017-08-14T10:03:57.389Z,26.36
2017-08-14T10:04:51.437Z,26.45
2017-08-14T10:05:51.540Z,26.53
2017-08-14T10:06:45.621Z,26.56
2017-08-14T10:07:34.561Z,26.05
2017-08-14T10:08:34.747Z,26.02
2017-08-14T10:09:28.746Z,25.99
2017-08-14T10:10:17.805Z,25.73
2017-08-14T10:11:11.970Z,25.66
2017-08-14T10:12:00.965Z,25.40
2017-08-14T10:13:06.938Z,25.23
2017-08-14T10:14:01.054Z,25.62
2017-08-14T10:14:49.139Z,26.02
2017-08-14T10:15:43.201Z,26.32
2017-08-14T10:16:43.271Z,26.49
2017-08-14T10:17:38.319Z,26.59
2017-08-14T10:18:32.400Z,26.54
2017-08-14T10:19:26.417Z,26.36
2017-08-14T10:20:15.574Z,25.90
2017-08-14T10:21:04.611Z,25.38
2017-08-14T10:21:58.644Z,24.99
2017-08-14T10:22:58.696Z,24.88
2017-08-14T10:23:53.814Z,24.86
2017-08-14T10:24:47.771Z,24.96
2017-08-14T10:25:41.923Z,25.34
2017-08-14T10:26:35.940Z,25.41
2017-08-14T10:27:36.078Z,25.48
2017-08-14T10:28:30.122Z,25.57
2017-08-14T10:29:30.104Z,25.00
2017-08-14T10:30:19.179Z,24.76
2017-08-14T10:31:14.249Z,24.73
2017-08-14T10:32:09.262Z,24.82
2017-08-14T10:33:09.369Z,24.64
2017-08-14T10:34:03.355Z,24.71
2017-08-14T10:34:57.477Z,25.24
2017-08-14T10:35:51.566Z,25.57
2017-08-14T10:36:51.652Z,26.09
2017-08-14T10:37:46.715Z,26.34
2017-08-14T10:38:40.766Z,25.96
2017-08-14T10:39:35.891Z,25.79
2017-08-14T10:40:35.907Z,25.88
2017-08-14T10:41:24.891Z,26.11
2017-08-14T10:42:20.039Z,26.09
2017-08-14T10:43:20.084Z,25.87
2017-08-14T10:44:14.155Z,25.66
2017-08-14T10:45:08.239Z,25.60
2017-08-14T10:46:03.281Z,25.89
2017-08-14T10:46:57.355Z,26.13
2017-08-14T10:47:57.443Z,26.69
2017-08-14T10:48:52.495Z,26.91
2017-08-14T10:49:46.661Z,26.47
2017-08-14T10:50:40.552Z,25.54
2017-08-14T10:51:34.586Z,25.37
2017-08-14T10:52:28.626Z,25.52
2017-08-14T10:53:16.794Z,25.66
2017-08-14T10:54:10.778Z,25.70
2017-08-14T10:55:00.234Z,25.47
2017-08-14T10:55:53.996Z,25.74
2017-08-14T10:56:54.026Z,26.23
2017-08-14T10:57:43.042Z,26.07
2017-08-14T10:58:37.180Z,25.84
2017-08-14T10:59:31.155Z,25.09
2017-08-14T11:00:25.218Z,25.22
2017-08-14T11:01:25.283Z,25.32
2017-08-14T11:02:13.344Z,25.52
2017-08-14T11:03:08.390Z,26.06
2017-08-14T11:03:57.525Z,26.39
2017-08-14T11:04:57.598Z,26.87
2017-08-14T11:05:46.615Z,27.32
2017-08-14T11:06:35.699Z,27.29
2017-08-14T11:07:30.815Z,27.41
2017-08-14T11:08:18.902Z,27.49
2017-08-14T11:09:07.901Z,27.67
2017-08-14T11:09:56.969Z,27.60
2017-08-14T11:10:51.073Z,27.41
2017-08-14T11:11:51.129Z,27.64
2017-08-14T11:12:45.190Z,28.00
2017-08-14T11:13:40.427Z,28.10
2017-08-14T11:14:35.339Z,27.79
2017-08-14T11:15:35.427Z,27.74
2017-08-14T11:16:29.392Z,26.60
2017-08-14T11:17:24.435Z,26.52
2017-08-14T11:18:19.577Z,26.72
2017-08-14T11:19:08.612Z,27.00
2017-08-14T11:20:03.573Z,27.34
2017-08-14T11:21:03.729Z,27.83
2017-08-14T11:21:57.794Z,27.98
2017-08-14T11:22:52.840Z,28.11
2017-08-14T11:23:41.892Z,28.26
2017-08-14T11:24:31.026Z,28.24
2017-08-14T11:25:20.088Z,28.10
2017-08-14T11:26:20.158Z,27.95
2017-08-14T11:27:20.235Z,27.44
2017-08-14T11:28:15.321Z,27.38
2017-08-14T11:29:03.370Z,26.64
2017-08-14T11:29:52.404Z,26.34
2017-08-14T11:30:46.491Z,26.12
2017-08-14T11:31:41.498Z,26.14
2017-08-14T11:32:35.626Z,26.42
2017-08-14T11:33:30.636Z,26.81
2017-08-14T11:34:31.721Z,27.50
2017-08-14T11:35:25.783Z,27.95
2017-08-14T11:36:19.793Z,28.22
2017-08-14T11:37:13.970Z,28.88
2017-08-14T11:38:14.155Z,29.78
2017-08-14T11:39:20.102Z,30.41
2017-08-14T11:40:09.243Z,30.88
2017-08-14T11:40:58.289Z,31.40
2017-08-14T11:41:53.314Z,31.43
2017-08-14T11:42:47.524Z,30.22
2017-08-14T11:43:42.516Z,29.40
2017-08-14T11:44:42.589Z,28.18
2017-08-14T11:45:36.702Z,27.87
2017-08-14T11:46:36.731Z,28.19
2017-08-14T11:47:31.873Z,27.93